Time;durP1;ratioP1;P1;durP2;ratioP2;P2;SDS_P1;SDS_P2;PMS_P1;PMS_P2;Temp;Humidity;BMP_temperature;BMP_pressure;BME280_temperature;BME280_humidity;BME280_pressure;Samples;Min_cycle;Max_cycle;Signal;HPM_P1;HPM_P2
2022/12/06 00:00:28;;;;;;;;;71.00;55.00;;;;;4.22;73.66;101221.16;5080344;27;45319;-71
2022/12/06 00:02:53;;;;;;;;;61.50;49.75;;;;;4.17;73.89;101215.09;5080403;27;46278;-72
2022/12/06 00:05:19;;;;;;;;;69.25;55.75;;;;;4.23;73.81;101225.47;5096565;27;45369;-72
2022/12/06 00:07:44;;;;;;;;;71.75;58.25;;;;;4.21;73.73;101218.56;5098722;27;45314;-71
2022/12/06 00:10:10;;;;;;;;;65.75;54.00;;;;;4.18;73.87;101214.22;5098560;27;45512;-71
2022/12/06 00:12:35;;;;;;;;;66.75;52.25;;;;;4.17;73.59;101217.69;5098262;27;45435;-72
2022/12/06 00:15:01;;;;;;;;;67.00;54.00;;;;;4.09;74.15;101198.63;5097882;27;45374;-72
2022/12/06 00:17:26;;;;;;;;;66.75;52.75;;;;;4.20;73.56;101215.06;5102188;27;45372;-72
2022/12/06 00:19:51;;;;;;;;;62.75;52.00;;;;;4.23;74.33;101207.25;5068331;27;45591;-72
2022/12/06 00:22:17;;;;;;;;;67.25;53.75;;;;;4.27;74.26;101207.28;5075943;27;46439;-71
2022/12/06 00:24:42;;;;;;;;;61.50;49.00;;;;;4.27;74.01;101209.88;5077156;27;45397;-71
2022/12/06 00:27:08;;;;;;;;;59.25;49.50;;;;;4.26;74.14;101208.16;5076930;27;45419;-71
2022/12/06 00:29:33;;;;;;;;;61.50;51.00;;;;;4.24;73.63;101195.13;5078388;27;45354;-70
2022/12/06 00:31:58;;;;;;;;;60.00;48.75;;;;;4.20;73.95;101196.00;5079141;27;46529;-70
2022/12/06 00:34:24;;;;;;;;;57.25;47.25;;;;;4.21;74.25;101187.31;5076747;28;45274;-71
2022/12/06 00:36:49;;;;;;;;;51.25;44.00;;;;;4.23;73.71;101189.03;5077907;27;45787;-72
2022/12/06 00:39:16;;;;;;;;;55.75;45.25;;;;;4.16;73.91;101171.69;5097664;27;45318;-70
2022/12/06 00:41:43;;;;;;;;;55.50;45.00;;;;;4.24;74.18;101187.31;5100388;27;46330;-71
2022/12/06 00:44:09;;;;;;;;;54.75;46.50;;;;;4.22;74.33;101187.28;5098265;27;45360;-71
2022/12/06 00:46:35;;;;;;;;;52.75;44.50;;;;;4.23;74.32;101191.63;5086007;27;45421;-71
2022/12/06 00:49:02;;;;;;;;;45.00;39.75;;;;;4.19;74.20;101182.09;5099326;27;45539;-71
2022/12/06 00:51:30;;;;;;;;;56.50;46.25;;;;;4.20;74.46;101185.59;5090193;27;45500;-70
2022/12/06 00:53:57;;;;;;;;;50.75;44.00;;;;;4.18;74.56;101182.13;5077554;27;45364;-71
2022/12/06 00:56:23;;;;;;;;;50.50;43.75;;;;;4.16;74.77;101171.69;5072629;27;45323;-70
2022/12/06 00:58:48;;;;;;;;;56.25;45.50;;;;;4.22;74.91;101178.63;5099279;27;45347;-70
2022/12/06 01:01:20;;;;;;;;;59.00;47.00;;;;;4.21;74.87;101179.50;5076465;28;46000;-70
2022/12/06 01:03:51;;;;;;;;;55.50;46.00;;;;;4.15;74.22;101164.75;5079780;28;45266;-70
2022/12/06 01:06:18;;;;;;;;;46.00;39.50;;;;;4.07;74.51;101163.91;5079701;27;45454;-71
2022/12/06 01:08:43;;;;;;;;;49.75;41.25;;;;;3.92;74.37;101142.28;5078071;28;45532;-71
2022/12/06 01:11:10;;;;;;;;;50.25;43.25;;;;;4.10;74.49;101166.50;5077629;28;46322;-70
2022/12/06 01:13:36;;;;;;;;;51.50;42.25;;;;;4.17;74.41;101177.78;5077292;27;45460;-70
2022/12/06 01:16:11;;;;;;;;;49.25;42.50;;;;;4.13;74.49;101173.47;5093067;27;45356;-70
2022/12/06 01:18:37;;;;;;;;;54.25;43.50;;;;;4.13;74.72;101184.72;5077242;27;45155;-70
2022/12/06 01:21:08;;;;;;;;;55.00;47.75;;;;;4.12;74.67;101175.19;5076793;27;45249;-72
2022/12/06 01:23:34;;;;;;;;;52.25;44.25;;;;;4.08;74.84;101168.25;5077201;27;45367;-73
2022/12/06 01:25:59;;;;;;;;;57.25;49.00;;;;;4.11;74.68;101170.00;5077257;27;45424;-71
2022/12/06 01:28:25;;;;;;;;;56.75;46.00;;;;;4.14;74.99;101170.84;5076520;27;45408;-70
2022/12/06 01:30:51;;;;;;;;;54.00;45.50;;;;;4.09;75.52;101167.38;5077296;28;45893;-70
2022/12/06 01:33:16;;;;;;;;;48.50;42.00;;;;;4.15;75.64;101182.97;5076536;28;45417;-70
2022/12/06 01:35:42;;;;;;;;;49.00;42.25;;;;;4.16;75.63;101182.09;5077964;27;45342;-72
2022/12/06 01:38:08;;;;;;;;;48.25;42.00;;;;;4.21;75.47;101180.34;5078156;27;45484;-71
2022/12/06 01:40:41;;;;;;;;;46.00;41.00;;;;;4.22;75.09;101191.66;5077429;28;45362;-72
2022/12/06 01:43:28;;;;;;;;;48.50;40.50;;;;;4.14;75.07;101181.25;5077558;27;45361;-71
2022/12/06 01:45:54;;;;;;;;;49.00;42.00;;;;;4.11;75.74;101172.59;5077710;28;45222;-70
2022/12/06 01:48:22;;;;;;;;;51.00;43.00;;;;;4.11;75.89;101167.38;5078887;27;45546;-70
2022/12/06 01:50:47;;;;;;;;;43.00;38.00;;;;;4.04;75.87;101164.81;5076113;27;47183;-72
2022/12/06 01:53:14;;;;;;;;;50.75;43.25;;;;;4.13;76.04;101174.31;5078954;28;46136;-71
2022/12/06 01:55:39;;;;;;;;;42.25;38.75;;;;;4.15;75.71;101174.31;5077448;27;45460;-70
2022/12/06 01:58:26;;;;;;;;;42.50;37.50;;;;;4.12;75.51;101169.97;5078088;28;45647;-71
2022/12/06 02:00:51;;;;;;;;;47.75;40.25;;;;;4.17;75.97;101183.00;5076688;27;46332;-71
2022/12/06 02:03:24;;;;;;;;;41.75;37.50;;;;;4.16;75.81;101182.09;5076619;27;45190;-70
2022/12/06 02:05:50;;;;;;;;;41.75;37.25;;;;;4.18;75.94;101184.72;5076434;27;45417;-69
2022/12/06 02:08:17;;;;;;;;;41.50;38.50;;;;;4.08;75.82;101173.47;5077121;27;45172;-70
2022/12/06 02:10:43;;;;;;;;;50.00;43.00;;;;;4.18;76.36;101189.94;5077838;27;46044;-72
2022/12/06 02:13:08;;;;;;;;;42.25;38.50;;;;;4.16;76.03;101189.91;5076623;27;45259;-70
2022/12/06 02:16:04;;;;;;;;;46.00;38.00;;;;;4.16;76.28;101186.47;5076548;27;45300;-70
2022/12/06 02:18:48;;;;;;;;;41.75;37.25;;;;;4.18;76.19;101189.94;5073348;28;45287;-71
2022/12/06 02:21:41;;;;;;;;;48.50;41.50;;;;;4.16;76.40;101182.09;5076358;27;46108;-70
2022/12/06 02:24:38;;;;;;;;;46.25;40.50;;;;;4.16;76.28;101182.09;5077891;27;45317;-71
2022/12/06 02:27:09;;;;;;;;;49.50;41.50;;;;;4.26;76.44;101193.38;5076863;27;45346;-73
2022/12/06 02:29:44;;;;;;;;;42.75;38.00;;;;;4.29;76.63;101190.75;5075018;28;45583;-71
2022/12/06 02:32:20;;;;;;;;;44.75;38.75;;;;;4.34;76.23;101198.56;5075916;27;46386;-70
2022/12/06 02:34:51;;;;;;;;;37.75;36.25;;;;;4.36;76.34;101194.22;5076715;27;45338;-70
2022/12/06 02:37:19;;;;;;;;;41.00;37.50;;;;;4.35;76.48;101200.28;5075164;28;45328;-70
2022/12/06 02:39:55;;;;;;;;;42.25;38.25;;;;;4.38;76.34;101184.66;5077123;27;45382;-72
2022/12/06 02:42:44;;;;;;;;;42.50;37.75;;;;;4.37;76.47;101188.13;5075892;28;46112;-72
2022/12/06 02:45:15;;;;;;;;;38.25;35.50;;;;;4.29;76.64;101177.72;5075574;28;45412;-70
2022/12/06 02:47:41;;;;;;;;;36.75;34.50;;;;;4.29;76.17;101185.53;5076382;27;45343;-71
2022/12/06 02:50:16;;;;;;;;;41.25;37.75;;;;;4.30;76.38;101184.66;5075528;27;45585;-70
2022/12/06 02:52:45;;;;;;;;;46.00;39.25;;;;;4.27;76.31;101179.47;5075312;27;46354;-72
2022/12/06 02:55:12;;;;;;;;;38.25;36.00;;;;;4.18;76.93;101175.16;5075500;27;45308;-70
2022/12/06 02:57:52;;;;;;;;;44.50;40.25;;;;;4.20;76.99;101173.41;5075527;27;45272;-71
2022/12/06 03:00:33;;;;;;;;;40.75;38.00;;;;;4.22;76.57;101176.03;5091643;27;45650;-70
2022/12/06 03:03:30;;;;;;;;;39.00;37.00;;;;;4.22;76.94;101176.88;5076440;27;46231;-71
2022/12/06 03:06:13;;;;;;;;;40.00;35.75;;;;;4.15;77.30;101164.75;5054467;28;45478;-71
2022/12/06 03:09:04;;;;;;;;;39.25;36.75;;;;;4.16;76.93;101171.69;5080328;27;45430;-71
2022/12/06 03:11:55;;;;;;;;;52.50;43.75;;;;;4.22;77.28;101182.09;5079483;28;45171;-74
2022/12/06 03:14:23;;;;;;;;;46.75;40.00;;;;;4.28;77.01;101185.56;5074518;28;46992;-71
2022/12/06 03:17:07;;;;;;;;;42.75;38.75;;;;;4.31;77.27;101177.72;5075385;27;45381;-71
2022/12/06 03:19:37;;;;;;;;;43.00;39.25;;;;;4.33;77.31;101184.66;5076412;27;45339;-71
2022/12/06 03:22:08;;;;;;;;;31.00;31.00;;;;;4.39;77.48;101191.59;5076561;28;45318;-71
2022/12/06 03:24:38;;;;;;;;;46.50;40.00;;;;;4.39;76.82;101183.78;5078268;27;46071;-71
2022/12/06 03:27:08;;;;;;;;;45.75;40.50;;;;;4.37;77.27;101169.88;5078740;28;45324;-73
2022/12/06 03:29:39;;;;;;;;;42.25;37.75;;;;;4.39;77.53;101173.34;5079192;28;45296;-71
2022/12/06 03:32:08;;;;;;;;;42.00;38.25;;;;;4.44;77.00;101182.00;5080928;27;45435;-72
2022/12/06 03:34:39;;;;;;;;;47.75;39.75;;;;;4.36;77.10;101158.59;5079600;27;45265;-71
2022/12/06 03:37:10;;;;;;;;;57.00;44.75;;;;;4.35;77.15;101162.06;5082892;27;45409;-71
2022/12/06 03:39:43;;;;;;;;;46.50;39.00;;;;;4.45;77.25;101178.53;5079431;27;45408;-73
2022/12/06 03:42:09;;;;;;;;;51.50;43.25;;;;;4.48;76.83;101185.44;5078174;28;45525;-72
2022/12/06 03:44:35;;;;;;;;;54.50;43.75;;;;;4.46;77.28;101179.38;5079599;28;45539;-70
2022/12/06 03:47:22;;;;;;;;;49.00;41.75;;;;;4.48;77.49;101173.31;5082527;27;45327;-72
2022/12/06 03:49:56;;;;;;;;;43.75;39.75;;;;;4.53;77.61;101181.06;5081479;27;45366;-72
2022/12/06 03:52:23;;;;;;;;;48.50;41.50;;;;;4.53;77.52;101186.28;5099593;27;45478;-71
2022/12/06 03:54:48;;;;;;;;;51.75;43.50;;;;;4.52;77.30;101185.44;5082100;27;46076;-70
2022/12/06 03:57:14;;;;;;;;;44.75;38.25;;;;;4.51;77.41;101180.22;5080858;27;45446;-72
2022/12/06 03:59:39;;;;;;;;;53.00;44.25;;;;;4.26;77.55;101137.81;5078123;27;45413;-71
2022/12/06 04:02:04;;;;;;;;;53.00;45.50;;;;;4.45;77.48;101162.91;5079001;27;45281;-71
2022/12/06 04:04:30;;;;;;;;;50.00;42.25;;;;;4.51;77.39;101175.00;5078356;27;46332;-70
2022/12/06 04:06:55;;;;;;;;;57.25;47.75;;;;;4.47;77.48;101182.00;5078162;27;45228;-70
2022/12/06 04:12:59;;;;;;;;;52.50;42.00;;;;;4.40;78.12;101175.09;5078355;27;45484;-70
2022/12/06 04:14:53;;;;;;;;;56.50;44.00;;;;;4.34;77.91;101164.69;5076481;28;46369;-71
2022/12/06 04:20:02;;;;;;;;;59.50;47.75;;;;;4.42;78.76;101178.56;5069036;27;45582;-72
2022/12/06 04:25:11;;;;;;;;;52.75;45.25;;;;;4.41;78.37;101176.81;5076716;28;45408;-71
2022/12/06 04:38:41;;;;;;;;;53.75;45.25;;;;;4.50;78.61;101175.88;5074853;28;47026;-70
2022/12/06 04:41:10;;;;;;;;;51.00;43.25;;;;;4.50;78.14;101176.78;5070657;28;45859;-71
2022/12/06 04:43:42;;;;;;;;;52.25;45.25;;;;;4.51;78.36;101178.50;5060631;28;45308;-72
2022/12/06 04:46:11;;;;;;;;;54.00;45.75;;;;;4.46;78.27;101168.97;5061665;28;45502;-72
2022/12/06 04:48:38;;;;;;;;;51.00;43.25;;;;;4.51;78.02;101181.09;5077139;28;45297;-70
2022/12/06 04:51:04;;;;;;;;;55.75;46.25;;;;;4.53;78.07;101175.88;5076937;27;45239;-71
2022/12/06 04:53:29;;;;;;;;;53.25;45.75;;;;;4.53;78.19;101162.84;5062022;28;45621;-71
2022/12/06 04:55:55;;;;;;;;;49.00;41.00;;;;;4.57;78.57;101166.31;5066550;28;46246;-71
2022/12/06 04:58:20;;;;;;;;;53.25;42.75;;;;;4.58;78.35;101163.69;5075831;28;45437;-70
2022/12/06 05:00:46;;;;;;;;;54.00;45.50;;;;;4.59;78.04;101162.81;5071179;28;45436;-71
2022/12/06 05:03:13;;;;;;;;;55.00;43.25;;;;;4.62;78.07;101165.38;5065228;28;45377;-70
2022/12/06 05:05:39;;;;;;;;;55.75;46.00;;;;;4.63;78.25;101166.28;5077695;28;46479;-70
2022/12/06 05:08:05;;;;;;;;;55.00;44.25;;;;;4.60;77.95;101161.06;5071166;27;45414;-71
2022/12/06 05:10:31;;;;;;;;;51.50;43.00;;;;;4.61;78.31;101160.19;5072932;28;45407;-71
2022/12/06 05:12:56;;;;;;;;;57.25;48.00;;;;;4.63;78.53;101148.03;5076306;27;45357;-72
2022/12/06 05:15:21;;;;;;;;;54.25;45.75;;;;;4.63;78.30;101148.88;5060383;28;45372;-70
2022/12/06 05:17:47;;;;;;;;;53.00;45.00;;;;;4.70;78.35;101157.53;5068307;28;45544;-71
2022/12/06 05:20:13;;;;;;;;;52.75;44.25;;;;;4.71;78.02;101156.66;5069321;28;45514;-72
2022/12/06 05:22:38;;;;;;;;;55.50;45.50;;;;;4.60;78.23;101129.81;5059719;28;45647;-71
2022/12/06 05:25:04;;;;;;;;;42.25;38.50;;;;;4.76;78.34;101149.69;5060977;28;45340;-73
2022/12/06 05:27:30;;;;;;;;;52.75;44.75;;;;;4.77;78.20;101148.81;5083424;27;45285;-71
2022/12/06 05:29:55;;;;;;;;;54.25;45.00;;;;;4.76;78.19;101144.47;5064857;28;45553;-75
2022/12/06 05:32:20;;;;;;;;;51.50;44.25;;;;;4.79;77.80;101149.66;5080593;28;45371;-71
2022/12/06 05:34:46;;;;;;;;;54.25;46.00;;;;;4.78;77.71;101147.06;5069280;28;45252;-71
2022/12/06 05:37:11;;;;;;;;;54.50;45.25;;;;;4.81;78.13;101142.69;5061533;28;45342;-72
2022/12/06 05:39:36;;;;;;;;;56.00;43.25;;;;;4.83;78.37;101140.09;5066317;27;45503;-72
2022/12/06 05:42:02;;;;;;;;;53.50;44.50;;;;;4.82;78.17;101140.97;5062091;28;45302;-72
2022/12/06 05:44:27;;;;;;;;;64.00;51.00;;;;;4.82;78.59;101138.34;5060010;28;45333;-72
2022/12/06 05:46:52;;;;;;;;;57.25;47.00;;;;;4.85;78.27;101140.06;5073607;27;45452;-70
2022/12/06 05:49:18;;;;;;;;;56.00;46.00;;;;;4.82;78.29;101135.75;5069719;27;45988;-71
2022/12/06 05:51:43;;;;;;;;;58.00;46.00;;;;;4.90;78.12;101143.50;5062955;28;45516;-71
2022/12/06 05:54:09;;;;;;;;;56.50;45.00;;;;;4.89;78.42;101137.44;5076784;27;45445;-72
2022/12/06 05:56:34;;;;;;;;;56.00;46.25;;;;;4.93;78.33;101141.75;5078556;27;45360;-73
2022/12/06 05:58:59;;;;;;;;;59.75;47.00;;;;;4.95;78.24;101136.50;5077436;27;45284;-70
2022/12/06 06:01:25;;;;;;;;;48.25;41.50;;;;;4.98;78.01;101141.69;5066585;27;45540;-71
2022/12/06 06:03:50;;;;;;;;;56.25;46.50;;;;;4.97;78.21;101132.13;5069263;28;45453;-71
2022/12/06 06:06:16;;;;;;;;;48.00;41.50;;;;;5.01;78.30;101146.88;5058883;28;45613;-71
2022/12/06 06:08:41;;;;;;;;;42.25;36.75;;;;;4.96;78.16;101135.63;5066144;28;51118;-72
2022/12/06 06:11:07;;;;;;;;;50.75;42.25;;;;;5.03;77.87;101146.88;5075624;28;45366;-71
2022/12/06 06:13:32;;;;;;;;;40.75;36.25;;;;;5.00;77.34;101141.69;5076070;27;46224;-71
2022/12/06 06:15:58;;;;;;;;;44.25;38.50;;;;;4.90;78.06;101133.94;5073334;28;45544;-70
2022/12/06 06:18:23;;;;;;;;;36.75;35.00;;;;;4.97;77.76;101143.44;5073381;27;45442;-73
2022/12/06 06:20:55;;;;;;;;;54.75;44.25;;;;;4.98;78.10;101146.91;5066208;28;45430;-73
2022/12/06 06:23:21;;;;;;;;;50.75;43.50;;;;;4.97;77.91;101147.78;5067735;27;45204;-72
2022/12/06 06:25:47;;;;;;;;;53.00;43.75;;;;;4.92;78.33;101137.41;5077509;28;45675;-71
2022/12/06 06:28:13;;;;;;;;;47.50;41.00;;;;;4.96;78.54;101138.22;5065548;27;45354;-71
2022/12/06 06:30:38;;;;;;;;;47.75;40.50;;;;;4.99;78.26;101147.78;5056121;28;45251;-70
2022/12/06 06:33:04;;;;;;;;;45.75;39.25;;;;;4.88;77.65;101137.44;5059032;28;46146;-72
2022/12/06 06:35:29;;;;;;;;;46.00;40.25;;;;;4.91;78.50;101140.00;5077051;27;45452;-72
2022/12/06 06:37:55;;;;;;;;;37.25;35.50;;;;;4.97;78.63;101142.56;5066598;27;45417;-71
2022/12/06 06:40:21;;;;;;;;;38.25;34.75;;;;;5.03;77.97;101152.09;5075363;27;45679;-70
2022/12/06 06:42:46;;;;;;;;;48.75;40.50;;;;;5.07;78.17;101156.41;5076727;28;46045;-71
2022/12/06 06:45:12;;;;;;;;;45.75;39.00;;;;;5.03;78.29;101155.56;5076183;28;45417;-73
2022/12/06 06:47:38;;;;;;;;;48.00;40.50;;;;;5.04;78.53;101166.88;5072991;28;45407;-72
2022/12/06 06:50:05;;;;;;;;;52.00;42.25;;;;;5.00;78.32;101165.16;5069182;27;45581;-71
2022/12/06 06:52:31;;;;;;;;;47.00;38.25;;;;;4.98;78.46;101162.56;5066526;28;46289;-72
2022/12/06 06:54:57;;;;;;;;;56.75;48.50;;;;;4.97;78.86;101163.44;5073253;27;45305;-72
2022/12/06 06:57:23;;;;;;;;;39.25;34.25;;;;;4.95;78.63;101159.97;5073349;28;45516;-72
2022/12/06 06:59:48;;;;;;;;;44.00;38.25;;;;;4.93;78.63;101166.94;5056170;27;45470;-71
2022/12/06 07:02:16;;;;;;;;;36.50;34.75;;;;;4.92;79.03;101167.81;5059872;28;46012;-72
2022/12/06 07:04:42;;;;;;;;;38.00;36.00;;;;;4.91;79.20;101161.75;5071651;27;45466;-71
2022/12/06 07:07:07;;;;;;;;;44.50;39.00;;;;;4.96;78.26;101157.38;5078470;27;45364;-72
2022/12/06 07:09:33;;;;;;;;;45.75;37.00;;;;;4.92;78.71;101162.59;5079765;27;45512;-71
2022/12/06 07:11:58;;;;;;;;;52.25;43.25;;;;;4.90;78.63;101160.03;5074602;27;46958;-71
2022/12/06 07:14:23;;;;;;;;;40.00;34.00;;;;;4.93;78.33;101165.22;5078623;27;45475;-71
2022/12/06 07:16:48;;;;;;;;;49.25;40.25;;;;;4.91;78.66;101163.47;5077108;28;45552;-72
2022/12/06 07:19:14;;;;;;;;;47.00;39.75;;;;;4.91;78.74;101163.47;5073485;27;45562;-70
2022/12/06 07:21:39;;;;;;;;;42.75;38.00;;;;;4.92;78.84;101155.66;5075254;27;50957;-71
2022/12/06 07:24:04;;;;;;;;;51.25;42.75;;;;;4.97;78.94;101153.00;5077420;27;53732;-73
2022/12/06 07:26:30;;;;;;;;;49.75;41.00;;;;;4.97;78.86;101150.41;5078791;28;45345;-71
2022/12/06 07:28:57;;;;;;;;;35.75;34.50;;;;;4.93;79.12;101146.09;5064808;28;45635;-71
2022/12/06 07:31:25;;;;;;;;;43.50;38.25;;;;;4.94;nan;101161.72;5078702;27;45380;-72
2022/12/06 07:33:53;;;;;;;;;43.75;37.50;;;;;4.97;79.36;101161.69;5080753;27;45357;-71
2022/12/06 07:36:18;;;;;;;;;44.50;38.25;;;;;4.98;78.64;101157.34;5068154;28;45327;-71
2022/12/06 07:38:50;;;;;;;;;39.75;36.00;;;;;5.00;79.52;101158.19;5058159;28;45270;-72
2022/12/06 07:46:47;;;;;;;;;49.75;41.25;;;;;4.91;80.01;101160.88;5063161;28;45532;-72
2022/12/06 07:49:14;;;;;;;;;47.25;39.50;;;;;4.93;79.60;101157.38;5076173;28;45641;-71
2022/12/06 07:51:40;;;;;;;;;44.00;39.25;;;;;4.95;80.09;101153.03;5072514;27;46113;-71
2022/12/06 07:54:08;;;;;;;;;44.75;40.00;;;;;5.00;80.05;101155.59;5071918;28;45509;-72
2022/12/06 07:56:34;;;;;;;;;52.00;42.25;;;;;5.05;80.19;101163.38;5078367;27;45331;-73
2022/12/06 07:59:00;;;;;;;;;43.50;39.50;;;;;4.92;79.84;101141.75;5080497;27;45316;-71
2022/12/06 08:01:25;;;;;;;;;48.50;42.75;;;;;4.99;80.96;101153.84;5073670;28;45493;-72
2022/12/06 08:03:52;;;;;;;;;48.00;40.00;;;;;5.03;80.33;101159.94;5065880;27;47967;-71
2022/12/06 08:06:17;;;;;;;;;47.25;38.00;;;;;5.02;80.51;101152.97;5077915;28;45505;-67
2022/12/06 08:08:43;;;;;;;;;44.75;39.25;;;;;5.06;81.05;101160.75;5073614;28;45492;-69
2022/12/06 08:11:08;;;;;;;;;43.25;37.75;;;;;5.15;80.81;101171.97;5077480;28;46075;-70
2022/12/06 08:13:35;;;;;;;;;50.75;42.50;;;;;5.18;80.39;101172.84;5076291;27;45295;-71
2022/12/06 08:16:11;;;;;;;;;50.00;41.50;;;;;5.20;80.08;101170.19;5075319;28;45286;-70
2022/12/06 08:18:37;;;;;;;;;48.25;41.75;;;;;5.21;80.52;101180.63;5077031;27;45203;-70
2022/12/06 08:21:03;;;;;;;;;49.75;41.50;;;;;5.21;80.06;101184.97;5076380;28;45517;-70
2022/12/06 08:23:29;;;;;;;;;49.75;41.50;;;;;5.17;80.35;101183.25;5078155;27;45386;-71
2022/12/06 08:26:00;;;;;;;;;48.00;40.00;;;;;5.11;80.50;101189.41;5093848;27;45361;-72
2022/12/06 08:28:27;;;;;;;;;47.50;41.00;;;;;5.09;80.50;101193.78;5082276;27;45298;-69
2022/12/06 08:30:53;;;;;;;;;53.00;45.00;;;;;5.09;81.13;101204.22;5094078;27;45466;-69
2022/12/06 08:33:18;;;;;;;;;57.50;47.25;;;;;5.02;81.39;101182.50;5096960;27;45362;-75
2022/12/06 08:35:44;;;;;;;;;53.75;44.75;;;;;5.14;81.43;101189.38;5082644;27;45228;-68
2022/12/06 08:38:09;;;;;;;;;56.00;48.00;;;;;5.15;81.65;101190.25;5073900;27;45476;-74
2022/12/06 08:40:34;;;;;;;;;51.75;43.50;;;;;5.17;81.55;101186.75;5073595;28;45438;-74
2022/12/06 08:43:00;;;;;;;;;56.00;46.25;;;;;5.25;80.80;101204.94;5077199;27;45356;-72
2022/12/06 08:45:25;;;;;;;;;53.00;44.00;;;;;5.23;81.59;101206.69;5078678;27;45678;-72
2022/12/06 08:47:50;;;;;;;;;57.50;47.50;;;;;5.21;81.32;101218.88;5078548;27;45421;-72
2022/12/06 08:50:16;;;;;;;;;51.50;43.00;;;;;5.14;80.94;101225.00;5075987;27;46080;-74
2022/12/06 08:52:41;;;;;;;;;64.00;51.00;;;;;5.02;81.45;101211.19;5076619;27;45446;-70
2022/12/06 08:55:07;;;;;;;;;62.75;49.75;;;;;5.07;81.66;101230.28;5076855;27;45389;-74
2022/12/06 08:57:32;;;;;;;;;60.00;50.50;;;;;5.01;81.77;101227.72;5076977;27;45719;-71
2022/12/06 08:59:58;;;;;;;;;68.50;55.75;;;;;4.94;82.16;101215.59;5075420;27;47249;-72
2022/12/06 09:02:23;;;;;;;;;61.75;50.50;;;;;4.90;81.86;101225.19;5076142;27;45468;-69
2022/12/06 09:04:51;;;;;;;;;59.50;49.50;;;;;4.88;82.02;101231.28;5077072;27;45341;-72
2022/12/06 09:07:18;;;;;;;;;61.75;49.75;;;;;4.84;82.80;101235.66;5077628;27;45257;-73
2022/12/06 09:09:45;;;;;;;;;61.75;49.75;;;;;4.83;83.26;101232.16;5076852;27;46558;-71
2022/12/06 09:12:11;;;;;;;;;56.25;46.25;;;;;4.77;83.37;101221.78;5076629;28;45430;-69
2022/12/06 09:14:36;;;;;;;;;59.00;48.00;;;;;4.79;83.32;101221.78;5076248;27;45391;-72
2022/12/06 09:17:02;;;;;;;;;61.75;51.25;;;;;4.75;82.97;101223.53;5079984;27;45346;-70
2022/12/06 09:19:27;;;;;;;;;60.50;48.75;;;;;4.78;83.84;101235.69;5080428;27;45424;-70
2022/12/06 09:21:53;;;;;;;;;59.50;50.00;;;;;4.80;83.95;101232.19;5079205;27;46090;-70
2022/12/06 09:24:18;;;;;;;;;64.50;52.50;;;;;4.82;83.23;101240.88;5079385;27;45431;-69
2022/12/06 09:26:44;;;;;;;;;56.25;46.75;;;;;4.80;84.14;101232.19;5078999;27;45260;-69
2022/12/06 09:29:11;;;;;;;;;56.25;47.50;;;;;4.88;84.02;101242.59;5078191;27;45371;-72
2022/12/06 09:31:38;;;;;;;;;59.25;49.50;;;;;4.91;83.60;101245.19;5077695;27;45189;-73
2022/12/06 09:34:06;;;;;;;;;55.75;46.50;;;;;4.94;84.01;101241.66;5077307;27;45245;-70
2022/12/06 09:36:31;;;;;;;;;61.50;48.50;;;;;4.97;83.91;101236.44;5077224;28;45578;-69
2022/12/06 09:39:25;;;;;;;;;58.75;48.25;;;;;5.01;83.54;101245.97;5076638;27;46247;-71
2022/12/06 09:42:11;;;;;;;;;59.00;47.75;;;;;5.02;83.85;101234.66;5076356;27;45375;-71
2022/12/06 09:45:07;;;;;;;;;62.00;49.75;;;;;5.01;83.44;101242.50;5076672;27;45269;-69
2022/12/06 09:48:00;;;;;;;;;65.50;52.25;;;;;5.03;83.54;101241.59;5076529;27;45317;-70
2022/12/06 09:50:25;;;;;;;;;60.75;48.50;;;;;5.05;83.42;101247.69;5075130;28;47248;-69
2022/12/06 09:53:06;;;;;;;;;61.00;50.25;;;;;5.07;83.47;101247.69;5076184;27;45415;-73
2022/12/06 09:56:06;;;;;;;;;61.25;49.50;;;;;5.05;83.16;101242.47;5076577;27;45632;-69
2022/12/06 09:58:46;;;;;;;;;68.00;54.00;;;;;5.07;83.35;101252.91;5060461;27;45485;-68
2022/12/06 10:01:30;;;;;;;;;68.00;54.00;;;;;5.06;83.06;101252.00;5077012;27;45412;-72
2022/12/06 10:04:30;;;;;;;;;61.25;50.00;;;;;5.00;83.11;101249.44;5075550;28;45240;-75
2022/12/06 10:07:04;;;;;;;;;69.00;54.25;;;;;4.98;83.92;101256.41;5076825;27;45357;-70
2022/12/06 10:09:49;;;;;;;;;67.00;52.50;;;;;4.96;83.93;101252.94;5075275;28;45426;-71
2022/12/06 10:12:17;;;;;;;;;61.75;49.25;;;;;4.91;83.41;101250.38;5076875;27;45481;-72
2022/12/06 10:15:08;;;;;;;;;61.00;48.00;;;;;4.85;84.05;101259.97;5076584;27;45474;-70
2022/12/06 10:17:45;;;;;;;;;60.50;50.00;;;;;4.82;84.62;101253.06;5076489;27;45410;-70
2022/12/06 10:20:22;;;;;;;;;67.50;52.00;;;;;4.82;84.27;101255.66;5076073;27;45558;-71
2022/12/06 10:22:57;;;;;;;;;60.25;49.00;;;;;4.86;84.32;101251.28;5075384;27;46464;-68
2022/12/06 10:25:33;;;;;;;;;60.25;50.00;;;;;4.86;84.46;101246.06;5075163;27;45455;-70
2022/12/06 10:27:58;;;;;;;;;57.25;47.00;;;;;4.83;84.72;101244.34;5075623;27;45386;-72
2022/12/06 10:30:24;;;;;;;;;58.00;47.50;;;;;4.76;84.59;101238.28;5076120;27;45312;-69
2022/12/06 10:32:49;;;;;;;;;53.75;44.50;;;;;4.81;84.67;101248.72;5075687;27;46150;-71
2022/12/06 10:35:36;;;;;;;;;55.50;45.25;;;;;4.82;84.82;101251.28;5075863;27;45324;-72
2022/12/06 10:38:19;;;;;;;;;47.50;41.25;;;;;4.83;85.13;101246.97;5075174;28;45320;-72
2022/12/06 10:40:49;;;;;;;;;52.50;44.50;;;;;4.80;84.68;101250.44;5058796;28;45614;-70
2022/12/06 10:43:26;;;;;;;;;53.75;44.25;;;;;4.86;85.34;101259.97;5075798;27;45965;-72
2022/12/06 10:48:57;;;;;;;;;54.75;46.00;;;;;4.92;85.43;101252.13;5076963;28;45349;-74
2022/12/06 10:51:47;;;;;;;;;51.75;43.50;;;;;4.91;85.33;101245.19;5078006;27;45478;-73
2022/12/06 10:54:37;;;;;;;;;56.00;46.50;;;;;4.88;85.34;101245.19;5076699;27;45249;-73
2022/12/06 10:57:10;;;;;;;;;56.00;46.75;;;;;4.94;85.33;101250.38;5076229;27;45358;-71
2022/12/06 10:59:43;;;;;;;;;56.75;46.25;;;;;4.94;84.96;101247.75;5077245;27;45307;-75
2022/12/06 11:02:23;;;;;;;;;67.25;54.75;;;;;4.96;84.75;101252.94;5077773;27;45249;-73
2022/12/06 11:04:52;;;;;;;;;46.75;40.25;;;;;4.89;84.94;101241.72;5076326;27;46231;-74
2022/12/06 11:07:24;;;;;;;;;64.50;52.00;;;;;4.91;85.00;101239.06;5077537;27;45337;-74
2022/12/06 11:09:53;;;;;;;;;63.00;52.00;;;;;4.90;85.28;101242.56;5076488;27;45405;-73
2022/12/06 11:12:25;;;;;;;;;64.00;51.25;;;;;4.88;85.40;101231.28;5076194;27;45194;-73
2022/12/06 11:15:12;;;;;;;;;65.50;51.25;;;;;4.88;86.27;101223.47;5075338;27;46221;-71
2022/12/06 11:17:43;;;;;;;;;63.00;51.00;;;;;4.97;85.73;101239.03;5075049;28;45969;-71
2022/12/06 11:20:24;;;;;;;;;57.75;45.50;;;;;5.00;86.19;101230.34;5078229;27;45346;-73
2022/12/06 11:23:08;;;;;;;;;63.50;49.50;;;;;4.97;85.91;101228.59;5077528;27;45246;-72
2022/12/06 11:26:16;;;;;;;;;60.25;48.25;;;;;4.97;85.98;101236.44;5075393;27;47494;-70
2022/12/06 11:28:54;;;;;;;;;60.25;49.50;;;;;4.97;86.23;101231.22;5033313;28;45325;-75
2022/12/06 11:31:27;;;;;;;;;57.00;44.75;;;;;4.97;86.41;101228.59;5066707;28;45486;-71
2022/12/06 11:33:53;;;;;;;;;67.75;50.50;;;;;4.96;86.80;101227.75;5059223;28;45360;-70
2022/12/06 11:36:20;;;;;;;;;58.25;49.00;;;;;4.89;86.30;101214.75;5075440;27;45346;-70
2022/12/06 11:38:45;;;;;;;;;59.25;47.75;;;;;4.96;86.02;101219.06;5076105;27;45455;-73
2022/12/06 11:41:21;;;;;;;;;61.00;50.00;;;;;4.94;86.34;101218.19;5077840;27;45437;-74
2022/12/06 11:43:46;;;;;;;;;61.00;50.00;;;;;4.91;86.68;101206.06;5080258;27;45458;-69
2022/12/06 11:46:13;;;;;;;;;58.75;48.00;;;;;4.98;86.45;101206.88;5080837;27;45318;-71
2022/12/06 11:48:39;;;;;;;;;58.25;48.00;;;;;4.96;87.21;101211.25;5075113;27;45391;-73
2022/12/06 11:51:14;;;;;;;;;66.75;51.25;;;;;4.97;87.10;101198.19;5077496;27;45323;-71
2022/12/06 11:54:02;;;;;;;;;63.75;52.00;;;;;4.99;87.03;101192.13;5079013;27;45352;-73
2022/12/06 11:56:35;;;;;;;;;63.75;51.25;;;;;5.01;86.88;101190.34;5076896;27;47848;-73